sensor_id;sensor_type;location;lat;lon;timestamp;P1;durP1;ratioP1;P2;durP2;ratioP2
4305;SDS011;2166;49.926;8.608;2023-07-22T00:01:58;4.80;;;4.30;;
4305;SDS011;2166;49.926;8.608;2023-07-22T00:04:27;4.45;;;3.78;;
4305;SDS011;2166;49.926;8.608;2023-07-22T00:06:55;5.18;;;4.10;;
4305;SDS011;2166;49.926;8.608;2023-07-22T00:09:23;5.35;;;4.32;;
4305;SDS011;2166;49.926;8.608;2023-07-22T00:11:52;7.60;;;4.93;;
4305;SDS011;2166;49.926;8.608;2023-07-22T00:14:20;5.95;;;3.95;;
4305;SDS011;2166;49.926;8.608;2023-07-22T00:16:49;5.80;;;4.13;;
4305;SDS011;2166;49.926;8.608;2023-07-22T00:19:19;6.32;;;4.40;;
4305;SDS011;2166;49.926;8.608;2023-07-22T00:21:47;8.77;;;4.80;;
4305;SDS011;2166;49.926;8.608;2023-07-22T00:24:16;8.15;;;4.68;;
4305;SDS011;2166;49.926;8.608;2023-07-22T00:26:45;7.82;;;4.90;;
4305;SDS011;2166;49.926;8.608;2023-07-22T00:29:13;6.00;;;3.75;;
4305;SDS011;2166;49.926;8.608;2023-07-22T00:31:41;6.32;;;4.50;;
4305;SDS011;2166;49.926;8.608;2023-07-22T00:34:10;7.78;;;3.72;;
4305;SDS011;2166;49.926;8.608;2023-07-22T00:36:40;5.70;;;3.20;;
4305;SDS011;2166;49.926;8.608;2023-07-22T00:39:08;6.90;;;4.82;;
4305;SDS011;2166;49.926;8.608;2023-07-22T00:41:38;6.65;;;4.53;;
4305;SDS011;2166;49.926;8.608;2023-07-22T00:44:07;8.43;;;3.88;;
4305;SDS011;2166;49.926;8.608;2023-07-22T00:46:35;5.78;;;3.60;;
4305;SDS011;2166;49.926;8.608;2023-07-22T00:49:04;5.93;;;4.13;;
4305;SDS011;2166;49.926;8.608;2023-07-22T00:51:34;11.30;;;5.18;;
4305;SDS011;2166;49.926;8.608;2023-07-22T00:54:04;8.30;;;4.28;;
4305;SDS011;2166;49.926;8.608;2023-07-22T00:56:36;8.02;;;4.50;;
4305;SDS011;2166;49.926;8.608;2023-07-22T00:59:04;4.45;;;4.00;;
4305;SDS011;2166;49.926;8.608;2023-07-22T01:01:32;7.25;;;5.47;;
4305;SDS011;2166;49.926;8.608;2023-07-22T01:04:01;10.95;;;5.38;;
4305;SDS011;2166;49.926;8.608;2023-07-22T01:06:30;10.10;;;5.18;;
4305;SDS011;2166;49.926;8.608;2023-07-22T01:08:59;10.32;;;5.43;;
4305;SDS011;2166;49.926;8.608;2023-07-22T01:11:30;6.95;;;4.55;;
4305;SDS011;2166;49.926;8.608;2023-07-22T01:13:58;6.28;;;4.72;;
4305;SDS011;2166;49.926;8.608;2023-07-22T01:16:26;11.57;;;5.28;;
4305;SDS011;2166;49.926;8.608;2023-07-22T01:18:56;7.38;;;3.90;;
4305;SDS011;2166;49.926;8.608;2023-07-22T01:21:25;7.50;;;4.57;;
4305;SDS011;2166;49.926;8.608;2023-07-22T01:23:57;10.13;;;5.55;;
4305;SDS011;2166;49.926;8.608;2023-07-22T01:26:26;6.13;;;4.13;;
4305;SDS011;2166;49.926;8.608;2023-07-22T01:29:01;11.57;;;4.45;;
4305;SDS011;2166;49.926;8.608;2023-07-22T01:31:30;5.82;;;3.80;;
4305;SDS011;2166;49.926;8.608;2023-07-22T01:34:01;4.72;;;4.18;;
4305;SDS011;2166;49.926;8.608;2023-07-22T01:36:30;4.63;;;4.20;;
4305;SDS011;2166;49.926;8.608;2023-07-22T01:39:00;6.15;;;4.38;;
4305;SDS011;2166;49.926;8.608;2023-07-22T01:41:28;9.13;;;4.45;;
4305;SDS011;2166;49.926;8.608;2023-07-22T01:43:57;7.43;;;4.80;;
4305;SDS011;2166;49.926;8.608;2023-07-22T01:46:27;6.53;;;4.68;;
4305;SDS011;2166;49.926;8.608;2023-07-22T01:48:56;9.95;;;4.72;;
4305;SDS011;2166;49.926;8.608;2023-07-22T01:51:24;5.47;;;4.38;;
4305;SDS011;2166;49.926;8.608;2023-07-22T01:53:52;6.10;;;4.75;;
4305;SDS011;2166;49.926;8.608;2023-07-22T01:56:24;5.22;;;4.72;;
4305;SDS011;2166;49.926;8.608;2023-07-22T01:58:53;7.60;;;5.75;;
4305;SDS011;2166;49.926;8.608;2023-07-22T02:01:21;8.07;;;5.00;;
4305;SDS011;2166;49.926;8.608;2023-07-22T02:03:51;5.03;;;3.92;;
4305;SDS011;2166;49.926;8.608;2023-07-22T02:06:20;13.68;;;4.78;;
4305;SDS011;2166;49.926;8.608;2023-07-22T02:08:49;14.00;;;5.30;;
4305;SDS011;2166;49.926;8.608;2023-07-22T02:11:17;6.07;;;4.60;;
4305;SDS011;2166;49.926;8.608;2023-07-22T02:13:47;6.93;;;4.82;;
4305;SDS011;2166;49.926;8.608;2023-07-22T02:16:16;6.15;;;4.80;;
4305;SDS011;2166;49.926;8.608;2023-07-22T02:18:45;7.38;;;4.55;;
4305;SDS011;2166;49.926;8.608;2023-07-22T02:21:14;9.10;;;5.00;;
4305;SDS011;2166;49.926;8.608;2023-07-22T02:23:42;8.45;;;4.55;;
4305;SDS011;2166;49.926;8.608;2023-07-22T02:26:10;6.05;;;4.45;;
4305;SDS011;2166;49.926;8.608;2023-07-22T02:28:39;4.40;;;3.50;;
4305;SDS011;2166;49.926;8.608;2023-07-22T02:31:08;6.03;;;3.95;;
4305;SDS011;2166;49.926;8.608;2023-07-22T02:33:37;7.18;;;4.03;;
4305;SDS011;2166;49.926;8.608;2023-07-22T02:36:05;6.18;;;4.30;;
4305;SDS011;2166;49.926;8.608;2023-07-22T02:38:35;7.22;;;4.57;;
4305;SDS011;2166;49.926;8.608;2023-07-22T02:41:04;6.53;;;5.35;;
4305;SDS011;2166;49.926;8.608;2023-07-22T02:43:34;7.40;;;5.15;;
4305;SDS011;2166;49.926;8.608;2023-07-22T02:46:03;8.18;;;5.20;;
4305;SDS011;2166;49.926;8.608;2023-07-22T02:48:36;6.22;;;5.38;;
4305;SDS011;2166;49.926;8.608;2023-07-22T02:51:06;7.53;;;5.38;;
4305;SDS011;2166;49.926;8.608;2023-07-22T02:53:35;9.15;;;4.60;;
4305;SDS011;2166;49.926;8.608;2023-07-22T02:56:04;6.85;;;4.55;;
4305;SDS011;2166;49.926;8.608;2023-07-22T02:58:34;9.70;;;5.43;;
4305;SDS011;2166;49.926;8.608;2023-07-22T03:01:03;13.40;;;5.28;;
4305;SDS011;2166;49.926;8.608;2023-07-22T03:03:33;6.93;;;5.00;;
4305;SDS011;2166;49.926;8.608;2023-07-22T03:06:04;11.35;;;6.15;;
4305;SDS011;2166;49.926;8.608;2023-07-22T03:08:32;7.25;;;5.28;;
4305;SDS011;2166;49.926;8.608;2023-07-22T03:11:00;7.25;;;6.20;;
4305;SDS011;2166;49.926;8.608;2023-07-22T03:13:30;7.95;;;6.22;;
4305;SDS011;2166;49.926;8.608;2023-07-22T03:16:01;13.32;;;4.75;;
4305;SDS011;2166;49.926;8.608;2023-07-22T03:18:31;5.07;;;4.47;;
4305;SDS011;2166;49.926;8.608;2023-07-22T03:20:59;5.57;;;4.00;;
4305;SDS011;2166;49.926;8.608;2023-07-22T03:23:29;7.82;;;5.50;;
4305;SDS011;2166;49.926;8.608;2023-07-22T03:25:57;9.07;;;5.50;;
4305;SDS011;2166;49.926;8.608;2023-07-22T03:28:26;7.38;;;4.55;;
4305;SDS011;2166;49.926;8.608;2023-07-22T03:30:54;7.72;;;5.13;;
4305;SDS011;2166;49.926;8.608;2023-07-22T03:33:23;7.53;;;5.72;;
4305;SDS011;2166;49.926;8.608;2023-07-22T03:35:51;7.68;;;5.38;;
4305;SDS011;2166;49.926;8.608;2023-07-22T03:38:20;6.75;;;4.50;;
4305;SDS011;2166;49.926;8.608;2023-07-22T03:40:49;5.40;;;4.63;;
4305;SDS011;2166;49.926;8.608;2023-07-22T03:43:19;5.43;;;3.95;;
4305;SDS011;2166;49.926;8.608;2023-07-22T03:45:48;4.93;;;4.20;;
4305;SDS011;2166;49.926;8.608;2023-07-22T03:48:16;7.80;;;4.28;;
4305;SDS011;2166;49.926;8.608;2023-07-22T03:50:44;5.50;;;3.83;;
4305;SDS011;2166;49.926;8.608;2023-07-22T03:53:12;7.35;;;4.40;;
4305;SDS011;2166;49.926;8.608;2023-07-22T03:55:41;6.80;;;4.18;;
4305;SDS011;2166;49.926;8.608;2023-07-22T03:58:10;14.95;;;5.20;;
4305;SDS011;2166;49.926;8.608;2023-07-22T04:00:39;5.03;;;3.97;;
4305;SDS011;2166;49.926;8.608;2023-07-22T04:03:08;8.48;;;4.60;;
4305;SDS011;2166;49.926;8.608;2023-07-22T04:05:36;8.25;;;4.57;;
4305;SDS011;2166;49.926;8.608;2023-07-22T04:08:05;7.93;;;4.47;;
4305;SDS011;2166;49.926;8.608;2023-07-22T04:10:33;9.30;;;4.05;;
4305;SDS011;2166;49.926;8.608;2023-07-22T04:13:01;5.57;;;4.85;;
4305;SDS011;2166;49.926;8.608;2023-07-22T04:15:31;6.80;;;4.72;;
4305;SDS011;2166;49.926;8.608;2023-07-22T04:17:59;7.68;;;5.35;;
4305;SDS011;2166;49.926;8.608;2023-07-22T04:20:28;9.18;;;5.50;;
4305;SDS011;2166;49.926;8.608;2023-07-22T04:22:56;8.25;;;4.95;;
4305;SDS011;2166;49.926;8.608;2023-07-22T04:25:27;6.47;;;5.70;;
4305;SDS011;2166;49.926;8.608;2023-07-22T04:27:56;6.68;;;5.40;;
4305;SDS011;2166;49.926;8.608;2023-07-22T04:30:25;6.78;;;5.47;;
4305;SDS011;2166;49.926;8.608;2023-07-22T04:32:55;8.95;;;5.03;;
4305;SDS011;2166;49.926;8.608;2023-07-22T04:35:25;6.38;;;4.93;;
4305;SDS011;2166;49.926;8.608;2023-07-22T04:37:53;10.32;;;4.72;;
4305;SDS011;2166;49.926;8.608;2023-07-22T04:40:21;5.30;;;4.80;;
4305;SDS011;2166;49.926;8.608;2023-07-22T04:42:51;7.72;;;5.32;;
4305;SDS011;2166;49.926;8.608;2023-07-22T04:45:19;8.30;;;4.50;;
4305;SDS011;2166;49.926;8.608;2023-07-22T04:47:50;7.10;;;3.55;;
4305;SDS011;2166;49.926;8.608;2023-07-22T04:50:20;4.18;;;3.10;;
4305;SDS011;2166;49.926;8.608;2023-07-22T04:52:49;3.60;;;3.17;;
4305;SDS011;2166;49.926;8.608;2023-07-22T04:55:18;5.53;;;2.88;;
4305;SDS011;2166;49.926;8.608;2023-07-22T04:57:46;3.80;;;3.40;;
4305;SDS011;2166;49.926;8.608;2023-07-22T05:00:15;4.15;;;3.17;;
4305;SDS011;2166;49.926;8.608;2023-07-22T05:02:46;4.80;;;3.00;;
4305;SDS011;2166;49.926;8.608;2023-07-22T05:05:15;6.28;;;3.33;;
4305;SDS011;2166;49.926;8.608;2023-07-22T05:07:45;6.13;;;3.55;;
4305;SDS011;2166;49.926;8.608;2023-07-22T05:10:15;3.72;;;2.67;;
4305;SDS011;2166;49.926;8.608;2023-07-22T05:12:45;4.75;;;3.03;;
4305;SDS011;2166;49.926;8.608;2023-07-22T05:15:14;8.18;;;2.95;;
4305;SDS011;2166;49.926;8.608;2023-07-22T05:17:43;6.20;;;3.30;;
4305;SDS011;2166;49.926;8.608;2023-07-22T05:20:11;3.92;;;2.78;;
4305;SDS011;2166;49.926;8.608;2023-07-22T05:22:40;7.45;;;3.78;;
4305;SDS011;2166;49.926;8.608;2023-07-22T05:25:10;9.50;;;3.80;;
4305;SDS011;2166;49.926;8.608;2023-07-22T05:27:39;5.72;;;3.22;;
4305;SDS011;2166;49.926;8.608;2023-07-22T05:30:07;6.20;;;3.53;;
4305;SDS011;2166;49.926;8.608;2023-07-22T05:32:54;8.15;;;3.45;;
4305;SDS011;2166;49.926;8.608;2023-07-22T05:35:22;7.20;;;3.30;;
4305;SDS011;2166;49.926;8.608;2023-07-22T05:37:51;12.20;;;3.72;;
4305;SDS011;2166;49.926;8.608;2023-07-22T05:40:21;10.80;;;3.25;;
4305;SDS011;2166;49.926;8.608;2023-07-22T05:42:49;9.02;;;3.38;;
4305;SDS011;2166;49.926;8.608;2023-07-22T05:45:18;8.25;;;3.58;;
4305;SDS011;2166;49.926;8.608;2023-07-22T05:47:46;10.27;;;3.03;;
4305;SDS011;2166;49.926;8.608;2023-07-22T05:50:15;4.82;;;3.40;;
4305;SDS011;2166;49.926;8.608;2023-07-22T05:52:43;8.50;;;3.20;;
4305;SDS011;2166;49.926;8.608;2023-07-22T05:55:12;6.40;;;2.95;;
4305;SDS011;2166;49.926;8.608;2023-07-22T05:57:42;10.02;;;3.38;;
4305;SDS011;2166;49.926;8.608;2023-07-22T06:00:11;7.75;;;3.20;;
4305;SDS011;2166;49.926;8.608;2023-07-22T06:02:40;9.45;;;3.45;;
4305;SDS011;2166;49.926;8.608;2023-07-22T06:05:09;5.78;;;2.75;;
4305;SDS011;2166;49.926;8.608;2023-07-22T06:07:38;8.07;;;3.33;;
4305;SDS011;2166;49.926;8.608;2023-07-22T06:10:06;7.20;;;3.67;;
4305;SDS011;2166;49.926;8.608;2023-07-22T06:12:35;6.97;;;3.38;;
4305;SDS011;2166;49.926;8.608;2023-07-22T06:15:07;15.90;;;4.20;;
4305;SDS011;2166;49.926;8.608;2023-07-22T06:17:36;7.15;;;3.63;;
4305;SDS011;2166;49.926;8.608;2023-07-22T06:20:05;4.70;;;3.78;;
4305;SDS011;2166;49.926;8.608;2023-07-22T06:22:34;4.75;;;4.00;;
4305;SDS011;2166;49.926;8.608;2023-07-22T06:25:03;4.47;;;3.80;;
4305;SDS011;2166;49.926;8.608;2023-07-22T06:27:32;7.75;;;3.90;;
4305;SDS011;2166;49.926;8.608;2023-07-22T06:30:00;5.90;;;3.92;;
4305;SDS011;2166;49.926;8.608;2023-07-22T06:32:30;5.18;;;3.72;;
4305;SDS011;2166;49.926;8.608;2023-07-22T06:34:58;5.00;;;4.18;;
4305;SDS011;2166;49.926;8.608;2023-07-22T06:37:27;8.63;;;4.25;;
4305;SDS011;2166;49.926;8.608;2023-07-22T06:39:57;6.35;;;3.85;;
4305;SDS011;2166;49.926;8.608;2023-07-22T06:42:26;8.88;;;3.70;;
4305;SDS011;2166;49.926;8.608;2023-07-22T06:44:54;7.60;;;3.88;;
4305;SDS011;2166;49.926;8.608;2023-07-22T06:47:22;8.60;;;3.45;;
4305;SDS011;2166;49.926;8.608;2023-07-22T06:49:52;4.93;;;3.45;;
4305;SDS011;2166;49.926;8.608;2023-07-22T06:52:20;7.22;;;3.90;;
4305;SDS011;2166;49.926;8.608;2023-07-22T06:54:49;5.32;;;3.63;;
4305;SDS011;2166;49.926;8.608;2023-07-22T06:57:17;4.80;;;3.92;;
4305;SDS011;2166;49.926;8.608;2023-07-22T06:59:45;6.82;;;3.90;;
4305;SDS011;2166;49.926;8.608;2023-07-22T07:02:14;4.95;;;3.53;;
4305;SDS011;2166;49.926;8.608;2023-07-22T07:04:42;5.22;;;4.00;;
4305;SDS011;2166;49.926;8.608;2023-07-22T07:07:12;8.15;;;4.07;;
4305;SDS011;2166;49.926;8.608;2023-07-22T07:09:41;6.82;;;4.15;;
4305;SDS011;2166;49.926;8.608;2023-07-22T07:12:09;5.05;;;3.67;;
4305;SDS011;2166;49.926;8.608;2023-07-22T07:14:38;6.15;;;3.38;;
4305;SDS011;2166;49.926;8.608;2023-07-22T07:17:06;7.25;;;3.78;;
4305;SDS011;2166;49.926;8.608;2023-07-22T07:19:35;8.52;;;4.13;;
4305;SDS011;2166;49.926;8.608;2023-07-22T07:22:03;7.80;;;3.85;;
4305;SDS011;2166;49.926;8.608;2023-07-22T07:24:33;4.97;;;3.35;;
4305;SDS011;2166;49.926;8.608;2023-07-22T07:27:02;5.60;;;3.60;;
4305;SDS011;2166;49.926;8.608;2023-07-22T07:29:30;5.15;;;3.40;;
4305;SDS011;2166;49.926;8.608;2023-07-22T07:32:18;6.30;;;3.25;;
4305;SDS011;2166;49.926;8.608;2023-07-22T07:34:47;6.13;;;3.58;;
4305;SDS011;2166;49.926;8.608;2023-07-22T07:37:17;4.57;;;3.10;;
4305;SDS011;2166;49.926;8.608;2023-07-22T07:39:47;8.38;;;3.13;;
4305;SDS011;2166;49.926;8.608;2023-07-22T07:42:15;5.32;;;3.63;;
4305;SDS011;2166;49.926;8.608;2023-07-22T07:44:44;8.15;;;3.50;;
4305;SDS011;2166;49.926;8.608;2023-07-22T07:47:13;8.45;;;3.85;;
4305;SDS011;2166;49.926;8.608;2023-07-22T07:49:41;4.80;;;3.72;;
4305;SDS011;2166;49.926;8.608;2023-07-22T07:52:09;7.05;;;3.80;;
4305;SDS011;2166;49.926;8.608;2023-07-22T07:54:38;6.20;;;3.10;;
4305;SDS011;2166;49.926;8.608;2023-07-22T07:57:08;6.20;;;2.95;;
4305;SDS011;2166;49.926;8.608;2023-07-22T07:59:36;4.82;;;3.40;;
4305;SDS011;2166;49.926;8.608;2023-07-22T08:02:05;3.85;;;3.00;;
4305;SDS011;2166;49.926;8.608;2023-07-22T08:04:37;4.75;;;2.75;;
4305;SDS011;2166;49.926;8.608;2023-07-22T08:07:05;5.88;;;3.50;;
4305;SDS011;2166;49.926;8.608;2023-07-22T08:09:34;4.43;;;3.45;;
4305;SDS011;2166;49.926;8.608;2023-07-22T08:12:03;7.05;;;3.60;;
4305;SDS011;2166;49.926;8.608;2023-07-22T08:14:33;4.85;;;3.47;;
4305;SDS011;2166;49.926;8.608;2023-07-22T08:17:01;3.40;;;2.95;;
4305;SDS011;2166;49.926;8.608;2023-07-22T08:19:30;7.28;;;4.50;;
4305;SDS011;2166;49.926;8.608;2023-07-22T08:21:58;10.52;;;3.83;;
4305;SDS011;2166;49.926;8.608;2023-07-22T08:24:27;5.63;;;3.75;;
4305;SDS011;2166;49.926;8.608;2023-07-22T08:26:55;5.90;;;3.42;;
4305;SDS011;2166;49.926;8.608;2023-07-22T08:29:24;6.22;;;3.60;;
4305;SDS011;2166;49.926;8.608;2023-07-22T08:31:54;5.40;;;3.47;;
4305;SDS011;2166;49.926;8.608;2023-07-22T08:34:22;5.43;;;3.25;;
4305;SDS011;2166;49.926;8.608;2023-07-22T08:36:50;6.07;;;3.33;;
4305;SDS011;2166;49.926;8.608;2023-07-22T08:39:19;6.13;;;3.05;;
4305;SDS011;2166;49.926;8.608;2023-07-22T08:41:48;3.42;;;2.55;;
4305;SDS011;2166;49.926;8.608;2023-07-22T08:44:18;5.30;;;3.30;;
4305;SDS011;2166;49.926;8.608;2023-07-22T08:46:50;4.55;;;3.22;;
4305;SDS011;2166;49.926;8.608;2023-07-22T08:49:26;4.57;;;2.83;;
4305;SDS011;2166;49.926;8.608;2023-07-22T08:51:55;6.78;;;2.90;;
4305;SDS011;2166;49.926;8.608;2023-07-22T08:54:25;7.30;;;3.00;;
4305;SDS011;2166;49.926;8.608;2023-07-22T08:56:54;6.35;;;3.25;;
4305;SDS011;2166;49.926;8.608;2023-07-22T08:59:26;3.50;;;2.85;;
4305;SDS011;2166;49.926;8.608;2023-07-22T09:01:59;5.28;;;3.05;;
4305;SDS011;2166;49.926;8.608;2023-07-22T09:04:29;5.55;;;2.88;;
4305;SDS011;2166;49.926;8.608;2023-07-22T09:06:57;5.05;;;2.80;;
4305;SDS011;2166;49.926;8.608;2023-07-22T09:09:26;7.45;;;2.90;;
4305;SDS011;2166;49.926;8.608;2023-07-22T09:11:54;5.75;;;2.90;;
4305;SDS011;2166;49.926;8.608;2023-07-22T09:14:24;3.92;;;2.70;;
4305;SDS011;2166;49.926;8.608;2023-07-22T09:17:05;4.13;;;3.22;;
4305;SDS011;2166;49.926;8.608;2023-07-22T09:19:33;5.47;;;3.28;;
4305;SDS011;2166;49.926;8.608;2023-07-22T09:22:02;7.80;;;3.60;;
4305;SDS011;2166;49.926;8.608;2023-07-22T09:24:30;4.63;;;2.85;;
4305;SDS011;2166;49.926;8.608;2023-07-22T09:26:59;5.57;;;3.30;;
4305;SDS011;2166;49.926;8.608;2023-07-22T09:29:32;5.03;;;3.45;;
4305;SDS011;2166;49.926;8.608;2023-07-22T09:32:02;8.02;;;3.17;;
4305;SDS011;2166;49.926;8.608;2023-07-22T09:34:32;4.70;;;2.80;;
4305;SDS011;2166;49.926;8.608;2023-07-22T09:37:01;7.53;;;2.70;;
4305;SDS011;2166;49.926;8.608;2023-07-22T09:39:30;6.97;;;2.60;;
4305;SDS011;2166;49.926;8.608;2023-07-22T09:41:59;3.15;;;2.80;;
4305;SDS011;2166;49.926;8.608;2023-07-22T09:44:29;5.50;;;2.70;;
4305;SDS011;2166;49.926;8.608;2023-07-22T09:46:59;5.55;;;2.60;;
4305;SDS011;2166;49.926;8.608;2023-07-22T09:49:39;4.53;;;2.35;;
4305;SDS011;2166;49.926;8.608;2023-07-22T09:52:09;3.83;;;2.10;;
4305;SDS011;2166;49.926;8.608;2023-07-22T09:54:46;4.00;;;2.70;;
4305;SDS011;2166;49.926;8.608;2023-07-22T09:57:16;4.40;;;2.92;;
4305;SDS011;2166;49.926;8.608;2023-07-22T09:59:46;4.63;;;2.80;;
4305;SDS011;2166;49.926;8.608;2023-07-22T10:02:17;4.35;;;2.70;;
4305;SDS011;2166;49.926;8.608;2023-07-22T10:04:50;4.38;;;2.85;;
4305;SDS011;2166;49.926;8.608;2023-07-22T10:07:19;7.47;;;2.63;;
4305;SDS011;2166;49.926;8.608;2023-07-22T10:09:51;3.92;;;2.35;;
4305;SDS011;2166;49.926;8.608;2023-07-22T10:12:23;4.97;;;2.85;;
4305;SDS011;2166;49.926;8.608;2023-07-22T10:14:52;5.70;;;2.75;;
4305;SDS011;2166;49.926;8.608;2023-07-22T10:17:21;6.30;;;2.67;;
4305;SDS011;2166;49.926;8.608;2023-07-22T10:19:52;3.97;;;3.10;;
4305;SDS011;2166;49.926;8.608;2023-07-22T10:22:21;7.50;;;2.97;;
4305;SDS011;2166;49.926;8.608;2023-07-22T10:24:49;4.45;;;3.10;;
4305;SDS011;2166;49.926;8.608;2023-07-22T10:27:19;4.28;;;2.55;;
4305;SDS011;2166;49.926;8.608;2023-07-22T10:29:48;5.65;;;2.80;;
4305;SDS011;2166;49.926;8.608;2023-07-22T10:32:17;3.60;;;2.95;;
4305;SDS011;2166;49.926;8.608;2023-07-22T10:34:45;3.72;;;2.40;;
4305;SDS011;2166;49.926;8.608;2023-07-22T10:37:18;5.05;;;2.75;;
4305;SDS011;2166;49.926;8.608;2023-07-22T10:39:50;4.00;;;2.78;;
4305;SDS011;2166;49.926;8.608;2023-07-22T10:42:23;4.20;;;2.75;;
4305;SDS011;2166;49.926;8.608;2023-07-22T10:44:52;4.38;;;3.03;;
4305;SDS011;2166;49.926;8.608;2023-07-22T10:47:33;3.78;;;2.50;;
4305;SDS011;2166;49.926;8.608;2023-07-22T10:50:05;5.28;;;2.92;;
4305;SDS011;2166;49.926;8.608;2023-07-22T10:52:41;6.10;;;3.30;;
4305;SDS011;2166;49.926;8.608;2023-07-22T10:55:15;6.13;;;3.40;;
4305;SDS011;2166;49.926;8.608;2023-07-22T10:57:48;5.93;;;2.83;;
4305;SDS011;2166;49.926;8.608;2023-07-22T11:00:17;8.43;;;2.80;;
4305;SDS011;2166;49.926;8.608;2023-07-22T11:02:47;5.50;;;3.25;;
4305;SDS011;2166;49.926;8.608;2023-07-22T11:05:48;6.03;;;3.05;;
4305;SDS011;2166;49.926;8.608;2023-07-22T11:11:04;6.10;;;3.20;;
4305;SDS011;2166;49.926;8.608;2023-07-22T11:13:34;7.00;;;3.00;;
4305;SDS011;2166;49.926;8.608;2023-07-22T11:16:10;6.93;;;2.83;;
4305;SDS011;2166;49.926;8.608;2023-07-22T11:18:39;5.53;;;2.50;;
4305;SDS011;2166;49.926;8.608;2023-07-22T11:21:09;4.38;;;2.90;;
4305;SDS011;2166;49.926;8.608;2023-07-22T11:23:40;3.28;;;2.83;;
4305;SDS011;2166;49.926;8.608;2023-07-22T11:26:08;5.63;;;2.80;;
4305;SDS011;2166;49.926;8.608;2023-07-22T11:28:38;3.47;;;2.50;;
4305;SDS011;2166;49.926;8.608;2023-07-22T11:31:07;6.22;;;2.70;;
4305;SDS011;2166;49.926;8.608;2023-07-22T11:33:39;3.47;;;2.63;;
4305;SDS011;2166;49.926;8.608;2023-07-22T11:36:10;4.03;;;2.20;;
4305;SDS011;2166;49.926;8.608;2023-07-22T11:38:41;4.68;;;2.17;;
4305;SDS011;2166;49.926;8.608;2023-07-22T11:41:09;5.75;;;2.55;;
4305;SDS011;2166;49.926;8.608;2023-07-22T11:43:38;4.43;;;2.50;;
4305;SDS011;2166;49.926;8.608;2023-07-22T11:46:07;4.93;;;2.70;;
4305;SDS011;2166;49.926;8.608;2023-07-22T11:48:36;9.27;;;2.67;;
4305;SDS011;2166;49.926;8.608;2023-07-22T11:51:04;4.95;;;2.75;;
4305;SDS011;2166;49.926;8.608;2023-07-22T11:53:35;5.50;;;2.80;;
4305;SDS011;2166;49.926;8.608;2023-07-22T11:56:06;5.10;;;2.65;;
4305;SDS011;2166;49.926;8.608;2023-07-22T11:58:34;3.85;;;2.25;;
4305;SDS011;2166;49.926;8.608;2023-07-22T12:01:03;4.50;;;2.67;;
4305;SDS011;2166;49.926;8.608;2023-07-22T12:03:33;4.57;;;2.58;;
4305;SDS011;2166;49.926;8.608;2023-07-22T12:06:05;3.63;;;2.38;;
4305;SDS011;2166;49.926;8.608;2023-07-22T12:08:34;5.60;;;2.42;;
4305;SDS011;2166;49.926;8.608;2023-07-22T12:11:06;5.90;;;2.42;;
4305;SDS011;2166;49.926;8.608;2023-07-22T12:13:38;7.18;;;2.67;;
4305;SDS011;2166;49.926;8.608;2023-07-22T12:16:12;3.05;;;2.50;;
4305;SDS011;2166;49.926;8.608;2023-07-22T12:18:41;3.70;;;2.15;;
4305;SDS011;2166;49.926;8.608;2023-07-22T12:21:10;4.82;;;2.28;;
4305;SDS011;2166;49.926;8.608;2023-07-22T12:23:39;4.65;;;2.17;;
4305;SDS011;2166;49.926;8.608;2023-07-22T12:26:09;4.88;;;2.10;;
4305;SDS011;2166;49.926;8.608;2023-07-22T12:28:37;8.85;;;2.53;;
4305;SDS011;2166;49.926;8.608;2023-07-22T12:31:06;3.05;;;2.38;;
4305;SDS011;2166;49.926;8.608;2023-07-22T12:33:36;4.38;;;2.47;;
4305;SDS011;2166;49.926;8.608;2023-07-22T12:36:04;5.80;;;2.33;;
4305;SDS011;2166;49.926;8.608;2023-07-22T12:38:33;3.65;;;2.17;;
4305;SDS011;2166;49.926;8.608;2023-07-22T12:41:02;4.38;;;2.30;;
4305;SDS011;2166;49.926;8.608;2023-07-22T12:43:32;4.95;;;2.22;;
4305;SDS011;2166;49.926;8.608;2023-07-22T12:45:59;3.83;;;2.17;;
4305;SDS011;2166;49.926;8.608;2023-07-22T12:48:28;4.93;;;2.72;;
4305;SDS011;2166;49.926;8.608;2023-07-22T12:50:57;4.28;;;2.38;;
4305;SDS011;2166;49.926;8.608;2023-07-22T12:53:25;3.63;;;2.55;;
4305;SDS011;2166;49.926;8.608;2023-07-22T12:55:57;3.70;;;2.05;;
4305;SDS011;2166;49.926;8.608;2023-07-22T12:58:26;4.13;;;2.35;;
4305;SDS011;2166;49.926;8.608;2023-07-22T13:00:55;4.22;;;2.17;;
4305;SDS011;2166;49.926;8.608;2023-07-22T13:03:24;2.67;;;2.38;;
4305;SDS011;2166;49.926;8.608;2023-07-22T13:05:52;5.53;;;2.30;;
4305;SDS011;2166;49.926;8.608;2023-07-22T13:08:20;2.45;;;1.98;;
4305;SDS011;2166;49.926;8.608;2023-07-22T13:10:49;9.48;;;2.65;;
4305;SDS011;2166;49.926;8.608;2023-07-22T13:13:18;2.97;;;2.30;;
4305;SDS011;2166;49.926;8.608;2023-07-22T13:15:46;6.15;;;2.35;;
4305;SDS011;2166;49.926;8.608;2023-07-22T13:18:16;3.83;;;2.20;;
4305;SDS011;2166;49.926;8.608;2023-07-22T13:20:44;3.88;;;1.90;;
4305;SDS011;2166;49.926;8.608;2023-07-22T13:23:13;4.55;;;3.17;;
4305;SDS011;2166;49.926;8.608;2023-07-22T13:25:42;3.53;;;2.50;;
4305;SDS011;2166;49.926;8.608;2023-07-22T13:28:11;8.05;;;2.70;;
4305;SDS011;2166;49.926;8.608;2023-07-22T13:30:39;6.15;;;2.50;;
4305;SDS011;2166;49.926;8.608;2023-07-22T13:33:08;3.55;;;2.65;;
4305;SDS011;2166;49.926;8.608;2023-07-22T13:35:37;7.68;;;3.33;;
4305;SDS011;2166;49.926;8.608;2023-07-22T13:38:05;4.90;;;2.75;;
4305;SDS011;2166;49.926;8.608;2023-07-22T13:40:34;5.22;;;2.35;;
4305;SDS011;2166;49.926;8.608;2023-07-22T13:43:02;4.88;;;2.58;;
4305;SDS011;2166;49.926;8.608;2023-07-22T13:45:31;4.38;;;3.03;;
4305;SDS011;2166;49.926;8.608;2023-07-22T13:48:00;3.75;;;2.30;;
4305;SDS011;2166;49.926;8.608;2023-07-22T13:50:29;4.30;;;2.40;;
4305;SDS011;2166;49.926;8.608;2023-07-22T13:53:02;3.00;;;1.83;;
4305;SDS011;2166;49.926;8.608;2023-07-22T13:55:31;2.83;;;2.20;;
4305;SDS011;2166;49.926;8.608;2023-07-22T13:57:59;3.75;;;2.55;;
4305;SDS011;2166;49.926;8.608;2023-07-22T14:00:27;2.60;;;2.05;;
4305;SDS011;2166;49.926;8.608;2023-07-22T14:02:56;8.07;;;2.53;;
4305;SDS011;2166;49.926;8.608;2023-07-22T14:05:25;4.50;;;2.58;;
4305;SDS011;2166;49.926;8.608;2023-07-22T14:07:54;5.47;;;2.60;;
4305;SDS011;2166;49.926;8.608;2023-07-22T14:10:25;2.88;;;1.98;;
4305;SDS011;2166;49.926;8.608;2023-07-22T14:12:53;6.35;;;2.72;;
4305;SDS011;2166;49.926;8.608;2023-07-22T14:15:22;4.40;;;2.67;;
4305;SDS011;2166;49.926;8.608;2023-07-22T14:17:50;3.08;;;2.13;;
4305;SDS011;2166;49.926;8.608;2023-07-22T14:20:19;5.05;;;2.75;;
4305;SDS011;2166;49.926;8.608;2023-07-22T14:22:47;4.00;;;2.95;;
4305;SDS011;2166;49.926;8.608;2023-07-22T14:25:16;6.18;;;3.03;;
4305;SDS011;2166;49.926;8.608;2023-07-22T14:27:47;5.65;;;2.50;;
4305;SDS011;2166;49.926;8.608;2023-07-22T14:30:15;4.10;;;2.30;;
4305;SDS011;2166;49.926;8.608;2023-07-22T14:32:44;4.18;;;2.35;;
4305;SDS011;2166;49.926;8.608;2023-07-22T14:35:12;4.60;;;2.95;;
4305;SDS011;2166;49.926;8.608;2023-07-22T14:37:41;5.22;;;3.00;;
4305;SDS011;2166;49.926;8.608;2023-07-22T14:40:10;12.73;;;2.92;;
4305;SDS011;2166;49.926;8.608;2023-07-22T14:42:39;7.00;;;2.60;;
4305;SDS011;2166;49.926;8.608;2023-07-22T14:45:10;5.35;;;2.45;;
4305;SDS011;2166;49.926;8.608;2023-07-22T14:47:40;4.78;;;3.08;;
4305;SDS011;2166;49.926;8.608;2023-07-22T14:50:09;3.35;;;2.63;;
4305;SDS011;2166;49.926;8.608;2023-07-22T14:52:37;4.53;;;2.80;;
4305;SDS011;2166;49.926;8.608;2023-07-22T14:55:06;5.18;;;2.42;;
4305;SDS011;2166;49.926;8.608;2023-07-22T14:57:36;5.20;;;2.38;;
4305;SDS011;2166;49.926;8.608;2023-07-22T15:00:05;7.80;;;2.85;;
4305;SDS011;2166;49.926;8.608;2023-07-22T15:02:35;4.40;;;2.33;;
4305;SDS011;2166;49.926;8.608;2023-07-22T15:05:03;5.85;;;2.53;;
4305;SDS011;2166;49.926;8.608;2023-07-22T15:07:32;9.02;;;2.60;;
4305;SDS011;2166;49.926;8.608;2023-07-22T15:10:01;7.35;;;2.85;;
4305;SDS011;2166;49.926;8.608;2023-07-22T15:12:30;3.50;;;2.60;;
4305;SDS011;2166;49.926;8.608;2023-07-22T15:14:59;5.18;;;2.88;;
4305;SDS011;2166;49.926;8.608;2023-07-22T15:17:27;6.65;;;2.63;;
4305;SDS011;2166;49.926;8.608;2023-07-22T15:20:00;3.88;;;2.50;;
4305;SDS011;2166;49.926;8.608;2023-07-22T15:22:28;4.72;;;2.50;;
4305;SDS011;2166;49.926;8.608;2023-07-22T15:24:56;3.70;;;2.35;;
4305;SDS011;2166;49.926;8.608;2023-07-22T15:27:25;5.00;;;2.65;;
4305;SDS011;2166;49.926;8.608;2023-07-22T15:29:55;7.85;;;2.55;;
4305;SDS011;2166;49.926;8.608;2023-07-22T15:32:24;4.32;;;2.35;;